Time;durP1;ratioP1;P1;durP2;ratioP2;P2;SDS_P1;SDS_P2;PMS_P1;PMS_P2;Temp;Humidity;BMP_temperature;BMP_pressure;BME280_temperature;BME280_humidity;BME280_pressure;Samples;Min_cycle;Max_cycle;Signal;HPM_P1;HPM_P2
2023/11/15 00:01:39;;;;;;;;;;;333.30;2329.60;;;;;;4972168;28;19906;-78
2023/11/15 00:04:05;;;;;;;;;;;333.30;2329.60;;;;;;4972059;28;19948;-78
2023/11/15 00:06:30;;;;;;;;;;;333.30;2329.60;;;;;;4972001;28;20375;-78
2023/11/15 00:08:56;;;;;;;;;;;333.30;2329.60;;;;;;4971780;28;19913;-78
2023/11/15 00:11:21;;;;;;;;;;;333.30;2329.60;;;;;;4971723;28;19964;-78
2023/11/15 00:13:50;;;;;;;;;;;333.30;2329.60;;;;;;4971425;28;20440;-78
2023/11/15 00:16:19;;;;;;;;;;;333.20;2329.60;;;;;;4969859;28;19906;-79
2023/11/15 00:18:45;;;;;;;;;;;333.30;2329.60;;;;;;4967005;28;20353;-78
2023/11/15 00:21:10;;;;;;;;;;;333.30;2329.60;;;;;;4972376;28;20008;-78
2023/11/15 00:23:36;;;;;;;;;;;333.30;2329.60;;;;;;4974982;28;19914;-78
2023/11/15 00:26:01;;;;;;;;;;;333.30;2329.60;;;;;;4981913;28;19917;-79
2023/11/15 00:28:27;;;;;;;;;;;333.30;2329.60;;;;;;4979699;28;19910;-78
2023/11/15 00:30:53;;;;;;;;;;;333.40;2329.60;;;;;;4975282;28;19965;-79
2023/11/15 00:33:18;;;;;;;;;;;333.30;2329.60;;;;;;4972085;28;19910;-79
2023/11/15 00:35:44;;;;;;;;;;;333.30;2329.60;;;;;;4958359;28;19954;-78
2023/11/15 00:38:11;;;;;;;;;;;333.30;2329.60;;;;;;4991408;28;20021;-78
2023/11/15 00:40:37;;;;;;;;;;;333.30;2329.60;;;;;;4991700;28;19906;-78
2023/11/15 00:43:03;;;;;;;;;;;333.30;2329.60;;;;;;4976693;28;19914;-78
2023/11/15 00:45:29;;;;;;;;;;;333.30;2329.60;;;;;;4991291;28;19913;-78
2023/11/15 00:47:55;;;;;;;;;;;333.20;2329.60;;;;;;4975221;28;20275;-78
2023/11/15 00:50:20;;;;;;;;;;;333.40;2329.60;;;;;;4974581;28;19939;-79
2023/11/15 00:52:46;;;;;;;;;;;333.50;2329.60;;;;;;4975263;28;19918;-78
2023/11/15 00:55:12;;;;;;;;;;;333.50;2329.60;;;;;;4974742;28;19913;-78
2023/11/15 00:57:38;;;;;;;;;;;333.50;2329.60;;;;;;4974251;28;19910;-79
2023/11/15 01:00:21;;;;;;;;;;;333.50;2329.60;;;;;;4974911;28;19913;-78
2023/11/15 01:02:47;;;;;;;;;;;333.50;2329.60;;;;;;4975941;28;20265;-79
2023/11/15 01:05:13;;;;;;;;;;;333.40;2329.60;;;;;;4974619;28;19914;-78
2023/11/15 01:07:38;;;;;;;;;;;333.20;2329.60;;;;;;4974705;28;19910;-79
2023/11/15 01:10:08;;;;;;;;;;;333.00;2329.60;;;;;;4974687;28;19906;-78
2023/11/15 01:12:33;;;;;;;;;;;333.00;2329.60;;;;;;4974529;28;19945;-78
2023/11/15 01:14:59;;;;;;;;;;;332.90;2329.60;;;;;;4975742;28;19906;-79
2023/11/15 01:17:25;;;;;;;;;;;332.90;2329.60;;;;;;4974439;28;20288;-78
2023/11/15 01:19:50;;;;;;;;;;;332.90;2329.60;;;;;;4976286;28;19980;-79
2023/11/15 01:22:16;;;;;;;;;;;332.80;2329.60;;;;;;4978023;28;19918;-79
2023/11/15 01:24:41;;;;;;;;;;;308.10;2304.00;;;;;;4977742;28;19905;-79
2023/11/15 01:27:07;;;;;;;;;;;308.10;2304.00;;;;;;4995206;28;20074;-79
2023/11/15 01:29:33;;;;;;;;;;;308.00;2304.00;;;;;;4995116;28;19929;-79
2023/11/15 01:31:58;;;;;;;;;;;308.00;2304.00;;;;;;4977226;28;19920;-79
2023/11/15 01:34:24;;;;;;;;;;;307.80;2304.00;;;;;;4977924;28;20276;-79
2023/11/15 01:36:49;;;;;;;;;;;307.80;2304.00;;;;;;4994843;28;19906;-79
2023/11/15 01:39:19;;;;;;;;;;;307.80;2304.00;;;;;;4994637;28;19905;-79
2023/11/15 01:41:48;;;;;;;;;;;307.70;2304.00;;;;;;4977056;28;19949;-79
2023/11/15 01:44:15;;;;;;;;;;;307.70;2304.00;;;;;;4995046;28;19910;-79
2023/11/15 01:46:41;;;;;;;;;;;307.70;2304.00;;;;;;4977200;28;19952;-79
2023/11/15 01:49:07;;;;;;;;;;;307.70;2304.00;;;;;;4994873;28;19906;-79
2023/11/15 01:51:32;;;;;;;;;;;307.70;2304.00;;;;;;4994240;28;19968;-79
2023/11/15 01:53:58;;;;;;;;;;;307.70;2304.00;;;;;;4994718;28;19913;-79
2023/11/15 01:56:23;;;;;;;;;;;307.80;2304.00;;;;;;4977261;28;19959;-79
2023/11/15 01:58:51;;;;;;;;;;;307.80;2304.00;;;;;;4977233;28;20370;-79
2023/11/15 02:01:17;;;;;;;;;;;307.80;2304.00;;;;;;4994577;28;19929;-79
2023/11/15 02:03:42;;;;;;;;;;;307.80;2304.00;;;;;;4977194;28;20359;-79
2023/11/15 02:06:08;;;;;;;;;;;307.90;2304.00;;;;;;4994047;28;19916;-79
2023/11/15 02:08:34;;;;;;;;;;;307.90;2304.00;;;;;;4994142;28;19912;-79
2023/11/15 02:10:59;;;;;;;;;;;307.90;2304.00;;;;;;4994471;28;20339;-79
2023/11/15 02:13:26;;;;;;;;;;;307.90;2304.00;;;;;;4976938;28;19905;-79
2023/11/15 02:15:52;;;;;;;;;;;307.90;2304.00;;;;;;4976303;28;19910;-79
2023/11/15 02:18:19;;;;;;;;;;;307.90;2304.00;;;;;;4976891;28;19968;-79
2023/11/15 02:20:46;;;;;;;;;;;307.90;2304.00;;;;;;4993949;28;19922;-79
2023/11/15 02:23:13;;;;;;;;;;;307.80;2304.00;;;;;;4994234;28;19917;-79
2023/11/15 02:25:40;;;;;;;;;;;307.80;2304.00;;;;;;4994223;28;19909;-79
2023/11/15 02:28:07;;;;;;;;;;;307.80;2304.00;;;;;;4977063;28;20588;-79
2023/11/15 02:30:33;;;;;;;;;;;307.70;2304.00;;;;;;4976667;28;19906;-79
2023/11/15 02:32:59;;;;;;;;;;;307.70;2304.00;;;;;;4994311;28;19910;-80
2023/11/15 02:35:24;;;;;;;;;;;307.70;2304.00;;;;;;4976727;28;19913;-79
2023/11/15 02:37:50;;;;;;;;;;;307.80;2304.00;;;;;;4976819;28;20008;-79
2023/11/15 02:40:16;;;;;;;;;;;307.80;2304.00;;;;;;4976850;28;20352;-79
2023/11/15 02:42:41;;;;;;;;;;;307.90;2304.00;;;;;;4975596;28;20248;-79
2023/11/15 02:45:07;;;;;;;;;;;307.90;2304.00;;;;;;4976756;28;20257;-79
2023/11/15 02:47:32;;;;;;;;;;;308.00;2304.00;;;;;;4976539;28;20438;-79
2023/11/15 02:49:58;;;;;;;;;;;308.00;2304.00;;;;;;4976502;28;19914;-79
2023/11/15 02:52:24;;;;;;;;;;;307.90;2304.00;;;;;;4976684;28;19945;-79
2023/11/15 02:54:49;;;;;;;;;;;307.90;2304.00;;;;;;4976835;28;20352;-79
2023/11/15 02:57:15;;;;;;;;;;;307.90;2304.00;;;;;;4976765;28;19906;-79
2023/11/15 02:59:40;;;;;;;;;;;307.90;2304.00;;;;;;4993888;28;19952;-79
2023/11/15 03:02:06;;;;;;;;;;;308.00;2304.00;;;;;;4976668;28;19906;-79
2023/11/15 03:04:32;;;;;;;;;;;307.90;2304.00;;;;;;4993889;28;20382;-79
2023/11/15 03:06:57;;;;;;;;;;;307.80;2304.00;;;;;;4976706;28;19991;-79
2023/11/15 03:09:23;;;;;;;;;;;307.90;2304.00;;;;;;4994131;28;19964;-79
2023/11/15 03:11:48;;;;;;;;;;;307.80;2304.00;;;;;;4976411;28;19920;-79
2023/11/15 03:14:14;;;;;;;;;;;307.80;2304.00;;;;;;4976557;28;19906;-79
2023/11/15 03:16:40;;;;;;;;;;;307.80;2304.00;;;;;;4993920;28;20422;-79
2023/11/15 03:19:06;;;;;;;;;;;307.90;2304.00;;;;;;4976625;28;19906;-80
2023/11/15 03:21:32;;;;;;;;;;;307.90;2304.00;;;;;;4995133;28;19921;-79
2023/11/15 03:23:57;;;;;;;;;;;307.90;2304.00;;;;;;4997384;28;19909;-79
2023/11/15 03:26:23;;;;;;;;;;;307.90;2304.00;;;;;;4997514;28;19906;-79
2023/11/15 03:28:48;;;;;;;;;;;308.00;2304.00;;;;;;4979373;28;20355;-79
2023/11/15 03:31:14;;;;;;;;;;;308.00;2304.00;;;;;;4997043;28;20001;-79
2023/11/15 03:33:43;;;;;;;;;;;308.00;2304.00;;;;;;4979875;28;19927;-80
2023/11/15 03:36:09;;;;;;;;;;;308.00;2304.00;;;;;;4979849;28;19916;-79
2023/11/15 03:38:35;;;;;;;;;;;308.00;2304.00;;;;;;4979229;28;19906;-80
2023/11/15 03:41:00;;;;;;;;;;;307.90;2304.00;;;;;;4979209;28;19960;-79
2023/11/15 03:43:26;;;;;;;;;;;308.00;2304.00;;;;;;4979024;28;20352;-79
2023/11/15 03:45:54;;;;;;;;;;;307.90;2304.00;;;;;;4979591;28;19906;-79
2023/11/15 03:48:20;;;;;;;;;;;308.00;2304.00;;;;;;4979388;28;19960;-79
2023/11/15 03:50:46;;;;;;;;;;;308.10;2304.00;;;;;;4978516;28;19909;-79
2023/11/15 03:53:11;;;;;;;;;;;308.10;2304.00;;;;;;4996786;28;19914;-79
2023/11/15 03:55:37;;;;;;;;;;;308.10;2304.00;;;;;;4979375;28;19946;-80
2023/11/15 03:58:02;;;;;;;;;;;308.10;2304.00;;;;;;4996566;28;20004;-79
2023/11/15 04:00:28;;;;;;;;;;;308.10;2304.00;;;;;;4979307;28;19917;-79
2023/11/15 04:02:54;;;;;;;;;;;308.10;2304.00;;;;;;4979141;28;19953;-79
2023/11/15 04:05:19;;;;;;;;;;;308.10;2304.00;;;;;;4996808;28;20013;-79
2023/11/15 04:07:45;;;;;;;;;;;308.00;2304.00;;;;;;4979077;28;19913;-79
2023/11/15 04:10:11;;;;;;;;;;;308.00;2304.00;;;;;;4979214;28;19964;-79
2023/11/15 04:12:37;;;;;;;;;;;308.00;2304.00;;;;;;4978942;28;19913;-79
2023/11/15 04:15:03;;;;;;;;;;;308.10;2304.00;;;;;;4979294;28;19912;-79
2023/11/15 04:17:29;;;;;;;;;;;308.10;2304.00;;;;;;4979047;28;19960;-79
2023/11/15 04:19:55;;;;;;;;;;;307.80;2304.00;;;;;;4978799;28;20375;-80
2023/11/15 04:22:21;;;;;;;;;;;308.10;2304.00;;;;;;4996077;28;19910;-79
2023/11/15 04:24:47;;;;;;;;;;;308.10;2304.00;;;;;;4978830;28;20339;-80
2023/11/15 04:27:13;;;;;;;;;;;308.10;2304.00;;;;;;4979149;28;19961;-79
2023/11/15 04:29:39;;;;;;;;;;;332.80;2329.60;;;;;;4979226;28;20260;-80
2023/11/15 04:32:08;;;;;;;;;;;332.80;2329.60;;;;;;4979944;28;19920;-80
2023/11/15 04:34:34;;;;;;;;;;;332.80;2329.60;;;;;;5005966;28;19941;-80
2023/11/15 04:37:00;;;;;;;;;;;332.90;2329.60;;;;;;4995975;28;19968;-80
2023/11/15 04:39:25;;;;;;;;;;;332.90;2329.60;;;;;;4978449;28;19996;-80
2023/11/15 04:41:51;;;;;;;;;;;333.10;2329.60;;;;;;4995935;28;20011;-80
2023/11/15 04:44:17;;;;;;;;;;;333.20;2329.60;;;;;;4978595;28;20371;-80
2023/11/15 04:46:42;;;;;;;;;;;333.20;2329.60;;;;;;4977884;28;19921;-80
2023/11/15 04:49:08;;;;;;;;;;;333.30;2329.60;;;;;;4978287;28;19910;-80
2023/11/15 04:51:34;;;;;;;;;;;333.40;2329.60;;;;;;4978601;28;19914;-80
2023/11/15 04:53:59;;;;;;;;;;;333.50;2329.60;;;;;;4978358;28;19909;-80
2023/11/15 04:56:25;;;;;;;;;;;333.50;2329.60;;;;;;4978025;28;19913;-80
2023/11/15 04:58:52;;;;;;;;;;;333.50;2329.60;;;;;;4978216;28;19954;-80
2023/11/15 05:01:18;;;;;;;;;;;333.60;2329.60;;;;;;4978058;28;19906;-80
2023/11/15 05:03:44;;;;;;;;;;;333.70;2329.60;;;;;;4995435;28;19909;-80
2023/11/15 05:06:09;;;;;;;;;;;333.70;2329.60;;;;;;4977891;28;19912;-79
2023/11/15 05:08:35;;;;;;;;;;;333.70;2329.60;;;;;;4978197;28;19905;-79
2023/11/15 05:11:01;;;;;;;;;;;333.70;2329.60;;;;;;4977589;28;19917;-79
2023/11/15 05:13:28;;;;;;;;;;;333.70;2329.60;;;;;;4978049;28;20386;-79
2023/11/15 05:15:55;;;;;;;;;;;358.40;2329.60;;;;;;4977921;28;19906;-80
2023/11/15 05:18:20;;;;;;;;;;;358.40;2329.60;;;;;;4977765;28;19912;-79
2023/11/15 05:20:46;;;;;;;;;;;358.40;2329.60;;;;;;4994044;28;20280;-79
2023/11/15 05:23:11;;;;;;;;;;;358.40;2329.60;;;;;;4977530;28;19910;-79
2023/11/15 05:25:37;;;;;;;;;;;358.50;2329.60;;;;;;4977774;28;19960;-80
2023/11/15 05:28:05;;;;;;;;;;;358.50;2329.60;;;;;;4995104;28;20411;-79
2023/11/15 05:30:30;;;;;;;;;;;358.50;2329.60;;;;;;4994887;28;19997;-80
2023/11/15 05:32:57;;;;;;;;;;;358.50;2329.60;;;;;;4994548;28;20004;-79
2023/11/15 05:35:22;;;;;;;;;;;358.50;2329.60;;;;;;4977324;28;20338;-79
2023/11/15 05:37:48;;;;;;;;;;;358.50;2329.60;;;;;;4977021;28;19963;-80
2023/11/15 05:40:15;;;;;;;;;;;358.50;2329.60;;;;;;4994638;28;19906;-79
2023/11/15 05:42:41;;;;;;;;;;;358.50;2329.60;;;;;;5003039;28;19911;-79
2023/11/15 05:45:07;;;;;;;;;;;358.50;2329.60;;;;;;4999003;28;19905;-79
2023/11/15 05:47:33;;;;;;;;;;;358.50;2329.60;;;;;;4976945;28;19941;-79
2023/11/15 05:49:58;;;;;;;;;;;358.50;2329.60;;;;;;4977203;28;19952;-80
2023/11/15 05:52:24;;;;;;;;;;;358.50;2329.60;;;;;;4977270;28;20289;-79
2023/11/15 05:54:49;;;;;;;;;;;358.50;2329.60;;;;;;4977256;28;19938;-79
2023/11/15 05:57:15;;;;;;;;;;;358.50;2329.60;;;;;;4977261;28;20383;-79
2023/11/15 05:59:41;;;;;;;;;;;358.50;2329.60;;;;;;4976827;28;19953;-80
2023/11/15 06:02:06;;;;;;;;;;;358.50;2329.60;;;;;;4977132;28;20032;-79
2023/11/15 06:04:32;;;;;;;;;;;358.50;2329.60;;;;;;4994288;28;20327;-78
2023/11/15 06:07:01;;;;;;;;;;;358.50;2329.60;;;;;;4994254;28;19909;-78
2023/11/15 06:09:27;;;;;;;;;;;358.50;2329.60;;;;;;4994191;28;20279;-80
2023/11/15 06:11:53;;;;;;;;;;;358.50;2329.60;;;;;;4994207;28;20352;-78
2023/11/15 06:14:19;;;;;;;;;;;358.50;2329.60;;;;;;4994137;28;19964;-78
2023/11/15 06:16:44;;;;;;;;;;;358.50;2329.60;;;;;;4986269;28;19960;-78
2023/11/15 06:19:10;;;;;;;;;;;358.50;2329.60;;;;;;4964374;28;20356;-78
2023/11/15 06:21:36;;;;;;;;;;;358.40;2329.60;;;;;;4992185;28;19940;-77
2023/11/15 06:24:01;;;;;;;;;;;333.70;2329.60;;;;;;4970952;28;19917;-78
2023/11/15 06:26:29;;;;;;;;;;;333.70;2329.60;;;;;;4988708;28;19996;-78
2023/11/15 06:28:55;;;;;;;;;;;333.70;2329.60;;;;;;4974698;28;20375;-78
2023/11/15 06:31:20;;;;;;;;;;;333.70;2329.60;;;;;;4990074;28;19949;-77
2023/11/15 06:33:46;;;;;;;;;;;333.40;2329.60;;;;;;4993606;28;19906;-76
2023/11/15 06:36:12;;;;;;;;;;;333.70;2329.60;;;;;;4973432;28;20032;-77
2023/11/15 06:38:37;;;;;;;;;;;333.60;2329.60;;;;;;4967359;28;20311;-77
2023/11/15 06:41:07;;;;;;;;;;;333.60;2329.60;;;;;;4963711;28;19910;-77
2023/11/15 06:43:32;;;;;;;;;;;333.50;2329.60;;;;;;4985965;28;20012;-77
2023/11/15 06:45:58;;;;;;;;;;;333.50;2329.60;;;;;;4988632;28;20000;-78
2023/11/15 06:48:24;;;;;;;;;;;333.50;2329.60;;;;;;4988261;28;19905;-79
2023/11/15 06:50:50;;;;;;;;;;;333.50;2329.60;;;;;;4972694;28;19910;-78
2023/11/15 06:53:16;;;;;;;;;;;333.50;2329.60;;;;;;4970919;28;19922;-79
2023/11/15 06:55:41;;;;;;;;;;;333.50;2329.60;;;;;;4987318;28;20273;-80
2023/11/15 06:58:08;;;;;;;;;;;333.50;2329.60;;;;;;4976797;28;19912;-84
2023/11/15 07:00:34;;;;;;;;;;;333.50;2329.60;;;;;;4976744;28;19909;-79
2023/11/15 07:03:03;;;;;;;;;;;333.50;2329.60;;;;;;4975790;28;19913;-78
2023/11/15 07:05:31;;;;;;;;;;;333.40;2329.60;;;;;;4975182;28;19909;-76
2023/11/15 07:07:56;;;;;;;;;;;333.40;2329.60;;;;;;4994921;28;19910;-76
2023/11/15 07:10:22;;;;;;;;;;;333.50;2329.60;;;;;;4993793;28;20439;-79
2023/11/15 07:12:48;;;;;;;;;;;333.50;2329.60;;;;;;4972902;28;20312;-77
2023/11/15 07:15:16;;;;;;;;;;;333.50;2329.60;;;;;;4991003;28;19906;-79
2023/11/15 07:17:43;;;;;;;;;;;333.50;2329.60;;;;;;4993522;28;19905;-78
2023/11/15 07:20:13;;;;;;;;;;;333.50;2329.60;;;;;;4985204;28;20012;-77
2023/11/15 07:22:38;;;;;;;;;;;333.60;2329.60;;;;;;4974660;28;19914;-77
2023/11/15 07:25:06;;;;;;;;;;;333.60;2329.60;;;;;;4974302;28;19913;-78
2023/11/15 07:27:34;;;;;;;;;;;333.70;2329.60;;;;;;4992864;28;19910;-77
2023/11/15 07:30:00;;;;;;;;;;;333.70;2329.60;;;;;;4992612;28;19905;-77
2023/11/15 07:32:27;;;;;;;;;;;333.70;2329.60;;;;;;4990065;28;19921;-78
2023/11/15 07:34:53;;;;;;;;;;;333.70;2329.60;;;;;;4986416;28;19912;-78
2023/11/15 07:37:18;;;;;;;;;;;358.40;2329.60;;;;;;4965825;28;19913;-76
2023/11/15 07:39:44;;;;;;;;;;;358.40;2329.60;;;;;;4992412;28;19949;-76
2023/11/15 07:42:09;;;;;;;;;;;333.70;2329.60;;;;;;4990597;28;20003;-77
2023/11/15 07:44:35;;;;;;;;;;;333.70;2329.60;;;;;;4968175;28;19917;-77
2023/11/15 07:47:01;;;;;;;;;;;333.70;2329.60;;;;;;4977602;28;19916;-81
2023/11/15 07:49:28;;;;;;;;;;;333.70;2329.60;;;;;;4977802;28;19905;-80
2023/11/15 07:51:54;;;;;;;;;;;333.70;2329.60;;;;;;4971467;28;20364;-81
2023/11/15 07:54:21;;;;;;;;;;;333.70;2329.60;;;;;;4974568;28;19913;-77
2023/11/15 07:56:46;;;;;;;;;;;333.70;2329.60;;;;;;4993629;28;19913;-80
2023/11/15 07:59:13;;;;;;;;;;;333.70;2329.60;;;;;;4964193;28;19913;-79
2023/11/15 08:01:42;;;;;;;;;;;333.70;2329.60;;;;;;4986932;28;19917;-76
2023/11/15 08:04:08;;;;;;;;;;;333.70;2329.60;;;;;;4996724;28;19906;-80
2023/11/15 08:06:35;;;;;;;;;;;333.60;2329.60;;;;;;4977797;28;20037;-78
2023/11/15 08:09:03;;;;;;;;;;;333.60;2329.60;;;;;;4975372;28;19906;-79
2023/11/15 08:11:30;;;;;;;;;;;333.70;2329.60;;;;;;4990205;28;19925;-79
2023/11/15 08:13:56;;;;;;;;;;;333.70;2329.60;;;;;;4990078;28;19910;-79
2023/11/15 08:16:26;;;;;;;;;;;333.70;2329.60;;;;;;4977030;28;19992;-79
2023/11/15 08:18:52;;;;;;;;;;;333.70;2329.60;;;;;;4967928;28;19912;-79
2023/11/15 08:21:18;;;;;;;;;;;333.70;2329.60;;;;;;4964489;28;19918;-79
2023/11/15 08:23:43;;;;;;;;;;;333.70;2329.60;;;;;;4973735;28;19916;-78
2023/11/15 08:26:09;;;;;;;;;;;333.70;2329.60;;;;;;4991056;28;19912;-78
2023/11/15 08:28:34;;;;;;;;;;;333.70;2329.60;;;;;;4972496;28;19914;-80
2023/11/15 08:31:00;;;;;;;;;;;358.40;2329.60;;;;;;4976943;28;20374;-79
2023/11/15 08:33:29;;;;;;;;;;;358.40;2329.60;;;;;;4972990;28;19916;-81
2023/11/15 08:35:54;;;;;;;;;;;358.50;2329.60;;;;;;4993178;28;19952;-79
2023/11/15 08:38:24;;;;;;;;;;;358.50;2329.60;;;;;;4984746;28;19906;-79
2023/11/15 08:40:55;;;;;;;;;;;358.60;2329.60;;;;;;4965678;28;19905;-77
2023/11/15 08:43:21;;;;;;;;;;;358.70;2329.60;;;;;;4992191;28;20374;-77
2023/11/15 08:45:47;;;;;;;;;;;358.80;2329.60;;;;;;4985769;28;19914;-77
2023/11/15 08:48:13;;;;;;;;;;;358.80;2329.60;;;;;;4979204;28;19906;-78
2023/11/15 08:50:41;;;;;;;;;;;358.90;2329.60;;;;;;4985282;28;19917;-77
2023/11/15 08:53:10;;;;;;;;;;;359.00;2329.60;;;;;;4967229;28;19918;-77
2023/11/15 08:55:36;;;;;;;;;;;359.10;2329.60;;;;;;4989143;28;19906;-77
2023/11/15 08:58:01;;;;;;;;;;;359.20;2329.60;;;;;;4985529;28;20056;-78
2023/11/15 09:00:29;;;;;;;;;;;359.10;2329.60;;;;;;4967618;28;20374;-76
2023/11/15 09:02:55;;;;;;;;;;;359.10;2329.60;;;;;;4983561;28;19913;-78
2023/11/15 09:05:22;;;;;;;;;;;359.10;2329.60;;;;;;4993094;28;19997;-78
2023/11/15 09:07:48;;;;;;;;;;;359.10;2329.60;;;;;;4972406;28;19938;-77
2023/11/15 09:10:13;;;;;;;;;;;359.10;2329.60;;;;;;4968345;28;20364;-79
2023/11/15 09:12:40;;;;;;;;;;;359.10;2329.60;;;;;;4985911;28;19914;-78
2023/11/15 09:15:11;;;;;;;;;;;359.10;2329.60;;;;;;4961536;28;20349;-79
2023/11/15 09:17:46;;;;;;;;;;;359.20;2329.60;;;;;;4974875;28;19995;-79
2023/11/15 09:20:19;;;;;;;;;;;359.20;2329.60;;;;;;4962532;28;19914;-77
2023/11/15 09:22:53;;;;;;;;;;;359.20;2329.60;;;;;;4985664;28;19917;-77
2023/11/15 09:25:25;;;;;;;;;;;359.30;2329.60;;;;;;4988647;28;20253;-75
2023/11/15 09:27:51;;;;;;;;;;;384.00;2329.60;;;;;;4972840;28;19910;-77
2023/11/15 09:30:21;;;;;;;;;;;384.00;2329.60;;;;;;4991061;28;19905;-80
2023/11/15 09:32:48;;;;;;;;;;;384.10;2329.60;;;;;;4974562;28;20410;-80
2023/11/15 09:35:13;;;;;;;;;;;384.20;2329.60;;;;;;4969742;28;19918;-80
2023/11/15 09:37:39;;;;;;;;;;;384.40;2329.60;;;;;;4989686;28;19909;-79
2023/11/15 09:40:09;;;;;;;;;;;384.40;2329.60;;;;;;4990144;28;19910;-80
2023/11/15 09:42:37;;;;;;;;;;;384.40;2329.60;;;;;;4969679;28;19910;-80
2023/11/15 09:45:03;;;;;;;;;;;384.50;2329.60;;;;;;4975869;28;20355;-80
2023/11/15 09:47:29;;;;;;;;;;;384.40;2329.60;;;;;;4992493;28;19953;-78
2023/11/15 09:49:55;;;;;;;;;;;384.40;1971.20;;;;;;4972143;28;19917;-82
2023/11/15 09:52:24;;;;;;;;;;;384.40;2329.60;;;;;;4987563;28;20383;-80
2023/11/15 09:54:50;;;;;;;;;;;384.40;2329.60;;;;;;4971904;28;20390;-81
2023/11/15 09:57:19;;;;;;;;;;;384.30;2329.60;;;;;;4984919;28;19906;-80
2023/11/15 09:59:45;;;;;;;;;;;384.40;2329.60;;;;;;4977659;28;20000;-82
2023/11/15 10:02:11;;;;;;;;;;;384.40;2329.60;;;;;;4992196;28;19906;-81
2023/11/15 10:04:37;;;;;;;;;;;384.40;2329.60;;;;;;4994587;28;19906;-81
2023/11/15 10:07:02;;;;;;;;;;;384.40;2329.60;;;;;;4992277;28;19909;-77
2023/11/15 10:09:31;;;;;;;;;;;384.40;2329.60;;;;;;4964011;28;19974;-78
2023/11/15 10:11:59;;;;;;;;;;;384.40;2252.80;;;;;;4966722;28;19913;-78
2023/11/15 10:14:25;;;;;;;;;;;384.50;2329.60;;;;;;4972942;28;19906;-76
2023/11/15 10:16:51;;;;;;;;;;;384.50;2329.60;;;;;;4982259;28;19945;-78
2023/11/15 10:19:26;;;;;;;;;;;384.50;2329.60;;;;;;4977007;28;19952;-78
2023/11/15 10:22:02;;;;;;;;;;;384.50;2329.60;;;;;;4969680;28;19929;-79
2023/11/15 10:24:28;;;;;;;;;;;384.70;2329.60;;;;;;4975332;28;19981;-78
2023/11/15 10:26:55;;;;;;;;;;;359.20;2329.60;;;;;;4973522;28;19906;-78
2023/11/15 10:29:21;;;;;;;;;;;384.70;2329.60;;;;;;4990260;28;19906;-78
2023/11/15 10:31:52;;;;;;;;;;;384.90;2329.60;;;;;;4972562;28;20357;-78
2023/11/15 10:34:24;;;;;;;;;;;384.90;2329.60;;;;;;4980723;28;19994;-78
2023/11/15 10:37:10;;;;;;;;;;;384.90;2329.60;;;;;;4996004;28;19981;-78
2023/11/15 10:39:46;;;;;;;;;;;384.90;2329.60;;;;;;4991103;28;19906;-79
2023/11/15 10:42:12;;;;;;;;;;;409.70;2355.20;;;;;;4990766;28;19905;-79
2023/11/15 10:44:38;;;;;;;;;;;409.70;2355.20;;;;;;4976564;28;19937;-79
2023/11/15 10:47:05;;;;;;;;;;;384.70;2329.60;;;;;;4991557;28;20335;-79
2023/11/15 10:49:33;;;;;;;;;;;410.10;2355.20;;;;;;4989199;28;19944;-79
2023/11/15 10:51:59;;;;;;;;;;;410.20;2201.60;;;;;;4988981;28;20390;-81
2023/11/15 10:54:25;;;;;;;;;;;410.20;2073.60;;;;;;4973144;28;19910;-78
2023/11/15 10:56:51;;;;;;;;;;;410.40;2355.20;;;;;;4992721;28;19905;-78
2023/11/15 10:59:18;;;;;;;;;;;410.40;2355.20;;;;;;4995819;28;19913;-79
2023/11/15 11:01:45;;;;;;;;;;;410.40;2355.20;;;;;;4991486;28;19905;-79
2023/11/15 11:04:12;;;;;;;;;;;435.60;2355.20;;;;;;4980024;28;19906;-79
2023/11/15 11:06:39;;;;;;;;;;;410.30;2355.20;;;;;;4977451;28;20356;-79
2023/11/15 11:09:11;;;;;;;;;;;410.30;2355.20;;;;;;4975977;28;19906;-78
2023/11/15 11:11:52;;;;;;;;;;;410.20;2355.20;;;;;;4988308;28;19913;-79
2023/11/15 11:14:21;;;;;;;;;;;410.30;2355.20;;;;;;4979191;28;19996;-79
2023/11/15 11:16:47;;;;;;;;;;;410.30;2355.20;;;;;;4976665;28;19909;-81
2023/11/15 11:19:17;;;;;;;;;;;410.30;2355.20;;;;;;4972251;28;19940;-79
2023/11/15 11:24:31;;;;;;;;;;;410.20;2355.20;;;;;;4989105;28;19921;-77
2023/11/15 11:27:09;;;;;;;;;;;410.20;2355.20;;;;;;4972551;28;19961;-78
2023/11/15 11:29:48;;;;;;;;;;;410.10;2355.20;;;;;;4975841;28;19905;-78
2023/11/15 11:32:26;;;;;;;;;;;410.10;2355.20;;;;;;4970686;28;19918;-80
2023/11/15 11:35:01;;;;;;;;;;;410.00;2355.20;;;;;;4986884;28;20280;-78
2023/11/15 11:37:52;;;;;;;;;;;410.00;2355.20;;;;;;4988341;28;19906;-78
2023/11/15 11:40:18;;;;;;;;;;;410.00;2355.20;;;;;;4991796;28;19906;-78
2023/11/15 11:42:44;;;;;;;;;;;410.00;2355.20;;;;;;4969843;28;19906;-77
2023/11/15 11:45:12;;;;;;;;;;;410.50;2355.20;;;;;;4984825;28;19959;-79
2023/11/15 11:47:46;;;;;;;;;;;409.80;2355.20;;;;;;4980176;28;19910;-81
2023/11/15 11:50:24;;;;;;;;;;;409.80;2355.20;;;;;;4973072;28;19906;-78
2023/11/15 11:52:53;;;;;;;;;;;409.80;2355.20;;;;;;4983778;28;19922;-79
2023/11/15 11:55:19;;;;;;;;;;;409.70;2355.20;;;;;;4973252;28;19917;-80
2023/11/15 11:57:44;;;;;;;;;;;409.70;2355.20;;;;;;4975801;28;20284;-79
2023/11/15 12:00:11;;;;;;;;;;;409.60;2355.20;;;;;;4979198;28;19934;-79
2023/11/15 12:02:47;;;;;;;;;;;409.60;2355.20;;;;;;4977683;28;19913;-79
2023/11/15 12:05:15;;;;;;;;;;;409.60;2355.20;;;;;;4976166;28;20012;-79
2023/11/15 12:07:42;;;;;;;;;;;409.60;2355.20;;;;;;4970582;28;19965;-79
2023/11/15 12:10:11;;;;;;;;;;;384.90;2329.60;;;;;;4973137;28;19913;-82
2023/11/15 12:12:36;;;;;;;;;;;384.90;2329.60;;;;;;4985843;28;19992;-80
2023/11/15 12:15:07;;;;;;;;;;;384.90;2329.60;;;;;;4963548;28;20371;-78
2023/11/15 12:17:44;;;;;;;;;;;384.90;2329.60;;;;;;4987454;28;20326;-81
2023/11/15 12:20:13;;;;;;;;;;;384.90;2329.60;;;;;;4977893;28;19922;-79
2023/11/15 12:22:42;;;;;;;;;;;384.70;2329.60;;;;;;4964555;28;19910;-79
2023/11/15 12:25:13;;;;;;;;;;;384.70;2329.60;;;;;;4988282;28;19964;-79
2023/11/15 12:27:41;;;;;;;;;;;384.70;2022.40;;;;;;4978256;28;19917;-80
2023/11/15 12:30:07;;;;;;;;;;;384.70;2329.60;;;;;;4992148;28;20005;-79
2023/11/15 12:32:42;;;;;;;;;;;384.60;2329.60;;;;;;4988664;28;19917;-79
2023/11/15 12:35:09;;;;;;;;;;;384.60;2329.60;;;;;;4994371;28;20046;-77
2023/11/15 12:37:35;;;;;;;;;;;384.50;2329.60;;;;;;4978227;28;19932;-80
2023/11/15 12:40:01;;;;;;;;;;;384.60;2329.60;;;;;;4978245;28;19951;-82
2023/11/15 12:42:27;;;;;;;;;;;384.60;2329.60;;;;;;4986843;28;19910;-83
2023/11/15 12:44:53;;;;;;;;;;;384.60;2329.60;;;;;;4974663;28;19905;-82
2023/11/15 12:47:27;;;;;;;;;;;384.70;2329.60;;;;;;4971574;28;19916;-81
2023/11/15 12:49:53;;;;;;;;;;;384.70;2329.60;;;;;;4964917;28;20000;-84
2023/11/15 12:52:37;;;;;;;;;;;384.60;2329.60;;;;;;4970294;28;20020;-88
2023/11/15 12:55:03;;;;;;;;;;;384.60;2329.60;;;;;;4984091;28;19910;-80
2023/11/15 12:57:29;;;;;;;;;;;384.60;2329.60;;;;;;4970238;28;19916;-79
2023/11/15 12:59:54;;;;;;;;;;;384.50;2329.60;;;;;;4989096;28;19997;-80
2023/11/15 13:02:30;;;;;;;;;;;384.50;2329.60;;;;;;4969202;28;19914;-84
2023/11/15 13:04:57;;;;;;;;;;;384.50;2329.60;;;;;;4977078;28;19932;-89
2023/11/15 13:07:22;;;;;;;;;;;384.50;2329.60;;;;;;4978402;28;20387;-82
2023/11/15 13:09:48;;;;;;;;;;;384.50;2329.60;;;;;;4993813;28;19906;-83
2023/11/15 13:12:26;;;;;;;;;;;384.50;2329.60;;;;;;4977376;28;19916;-81
2023/11/15 13:14:52;;;;;;;;;;;384.50;2329.60;;;;;;4969959;28;19913;-81
2023/11/15 13:17:18;;;;;;;;;;;384.50;2329.60;;;;;;4970114;28;19985;-82
2023/11/15 13:19:43;;;;;;;;;;;384.50;2329.60;;;;;;4974372;28;19952;-84
2023/11/15 13:22:09;;;;;;;;;;;384.50;2329.60;;;;;;4989324;28;19926;-79
2023/11/15 13:24:37;;;;;;;;;;;384.40;2329.60;;;;;;4971769;28;19961;-79
2023/11/15 13:27:02;;;;;;;;;;;384.40;2329.60;;;;;;4992210;28;19993;-79
2023/11/15 13:29:28;;;;;;;;;;;384.50;2329.60;;;;;;4973420;28;19945;-79
2023/11/15 13:31:54;;;;;;;;;;;384.50;2329.60;;;;;;4987329;28;20010;-78
2023/11/15 13:34:20;;;;;;;;;;;384.40;2329.60;;;;;;4977311;28;19906;-83
2023/11/15 13:36:46;;;;;;;;;;;384.40;2329.60;;;;;;4983986;28;20001;-79
2023/11/15 13:39:14;;;;;;;;;;;384.40;2329.60;;;;;;4976527;28;19906;-79
2023/11/15 13:41:40;;;;;;;;;;;384.40;2329.60;;;;;;4965444;28;20312;-79
2023/11/15 13:44:07;;;;;;;;;;;384.40;2329.60;;;;;;4990721;28;19913;-79